sensor_id;sensor_type;location;lat;lon;timestamp;P1;durP1;ratioP1;P2;durP2;ratioP2
11189;SDS011;5651;50.926;4.718;2022-07-17T00:01:33;4.60;;;2.70;;
11189;SDS011;5651;50.926;4.718;2022-07-17T00:03:59;5.38;;;3.00;;
11189;SDS011;5651;50.926;4.718;2022-07-17T00:06:25;5.25;;;2.55;;
11189;SDS011;5651;50.926;4.718;2022-07-17T00:08:51;4.55;;;2.90;;
11189;SDS011;5651;50.926;4.718;2022-07-17T00:11:16;6.43;;;3.25;;
11189;SDS011;5651;50.926;4.718;2022-07-17T00:13:42;7.13;;;4.20;;
11189;SDS011;5651;50.926;4.718;2022-07-17T00:16:08;5.88;;;2.80;;
11189;SDS011;5651;50.926;4.718;2022-07-17T00:18:34;5.05;;;2.92;;
11189;SDS011;5651;50.926;4.718;2022-07-17T00:21:00;5.40;;;2.88;;
11189;SDS011;5651;50.926;4.718;2022-07-17T00:23:25;4.85;;;2.78;;
11189;SDS011;5651;50.926;4.718;2022-07-17T00:25:51;3.58;;;2.50;;
11189;SDS011;5651;50.926;4.718;2022-07-17T00:28:17;5.15;;;2.90;;
11189;SDS011;5651;50.926;4.718;2022-07-17T00:30:42;4.80;;;2.65;;
11189;SDS011;5651;50.926;4.718;2022-07-17T00:33:08;5.80;;;2.70;;
11189;SDS011;5651;50.926;4.718;2022-07-17T00:35:34;5.80;;;3.05;;
11189;SDS011;5651;50.926;4.718;2022-07-17T00:38:00;3.95;;;2.85;;
11189;SDS011;5651;50.926;4.718;2022-07-17T00:40:26;8.38;;;2.97;;
11189;SDS011;5651;50.926;4.718;2022-07-17T00:42:52;7.43;;;3.42;;
11189;SDS011;5651;50.926;4.718;2022-07-17T00:45:18;7.30;;;2.70;;
11189;SDS011;5651;50.926;4.718;2022-07-17T00:48:00;5.15;;;3.03;;
11189;SDS011;5651;50.926;4.718;2022-07-17T00:50:32;7.85;;;3.67;;
11189;SDS011;5651;50.926;4.718;2022-07-17T00:53:00;4.45;;;3.10;;
11189;SDS011;5651;50.926;4.718;2022-07-17T00:55:27;5.07;;;2.75;;
11189;SDS011;5651;50.926;4.718;2022-07-17T00:57:53;7.57;;;2.72;;
11189;SDS011;5651;50.926;4.718;2022-07-17T01:00:21;9.45;;;3.03;;
11189;SDS011;5651;50.926;4.718;2022-07-17T01:02:48;6.63;;;3.15;;
11189;SDS011;5651;50.926;4.718;2022-07-17T01:05:18;8.35;;;3.20;;
11189;SDS011;5651;50.926;4.718;2022-07-17T01:07:45;5.32;;;3.08;;
11189;SDS011;5651;50.926;4.718;2022-07-17T01:10:12;5.22;;;2.95;;
11189;SDS011;5651;50.926;4.718;2022-07-17T01:12:38;8.35;;;3.38;;
11189;SDS011;5651;50.926;4.718;2022-07-17T01:15:07;7.93;;;2.70;;
11189;SDS011;5651;50.926;4.718;2022-07-17T01:17:34;6.88;;;3.55;;
11189;SDS011;5651;50.926;4.718;2022-07-17T01:20:04;7.28;;;2.92;;
11189;SDS011;5651;50.926;4.718;2022-07-17T01:22:31;10.00;;;5.15;;
11189;SDS011;5651;50.926;4.718;2022-07-17T01:24:57;5.00;;;3.17;;
11189;SDS011;5651;50.926;4.718;2022-07-17T01:27:23;6.10;;;3.70;;
11189;SDS011;5651;50.926;4.718;2022-07-17T01:29:49;5.63;;;2.90;;
11189;SDS011;5651;50.926;4.718;2022-07-17T01:32:15;5.28;;;2.72;;
11189;SDS011;5651;50.926;4.718;2022-07-17T01:34:40;6.80;;;3.63;;
11189;SDS011;5651;50.926;4.718;2022-07-17T01:37:06;6.80;;;3.53;;
11189;SDS011;5651;50.926;4.718;2022-07-17T01:39:32;4.63;;;3.20;;
11189;SDS011;5651;50.926;4.718;2022-07-17T01:42:16;5.78;;;3.58;;
11189;SDS011;5651;50.926;4.718;2022-07-17T01:44:42;9.40;;;3.70;;
11189;SDS011;5651;50.926;4.718;2022-07-17T01:47:07;7.60;;;3.42;;
11189;SDS011;5651;50.926;4.718;2022-07-17T01:49:33;4.65;;;3.38;;
11189;SDS011;5651;50.926;4.718;2022-07-17T01:51:59;6.43;;;3.17;;
11189;SDS011;5651;50.926;4.718;2022-07-17T01:54:29;5.10;;;3.10;;
11189;SDS011;5651;50.926;4.718;2022-07-17T01:56:55;7.35;;;3.60;;
11189;SDS011;5651;50.926;4.718;2022-07-17T01:59:21;8.23;;;3.88;;
11189;SDS011;5651;50.926;4.718;2022-07-17T02:01:46;5.93;;;3.30;;
11189;SDS011;5651;50.926;4.718;2022-07-17T02:04:12;6.68;;;4.05;;
11189;SDS011;5651;50.926;4.718;2022-07-17T02:06:38;7.05;;;3.95;;
11189;SDS011;5651;50.926;4.718;2022-07-17T02:09:04;6.85;;;3.10;;
11189;SDS011;5651;50.926;4.718;2022-07-17T02:11:29;5.20;;;3.30;;
11189;SDS011;5651;50.926;4.718;2022-07-17T02:13:55;9.40;;;3.72;;
11189;SDS011;5651;50.926;4.718;2022-07-17T02:16:21;6.85;;;3.60;;
11189;SDS011;5651;50.926;4.718;2022-07-17T02:18:46;7.22;;;3.28;;
11189;SDS011;5651;50.926;4.718;2022-07-17T02:21:12;8.80;;;3.55;;
11189;SDS011;5651;50.926;4.718;2022-07-17T02:23:38;6.68;;;4.32;;
11189;SDS011;5651;50.926;4.718;2022-07-17T02:26:04;6.95;;;3.55;;
11189;SDS011;5651;50.926;4.718;2022-07-17T02:28:30;6.15;;;3.67;;
11189;SDS011;5651;50.926;4.718;2022-07-17T02:30:55;9.68;;;3.53;;
11189;SDS011;5651;50.926;4.718;2022-07-17T02:33:21;6.07;;;3.35;;
11189;SDS011;5651;50.926;4.718;2022-07-17T02:35:47;8.98;;;3.78;;
11189;SDS011;5651;50.926;4.718;2022-07-17T02:38:12;6.85;;;3.35;;
11189;SDS011;5651;50.926;4.718;2022-07-17T02:40:38;7.40;;;3.40;;
11189;SDS011;5651;50.926;4.718;2022-07-17T02:43:04;7.70;;;3.17;;
11189;SDS011;5651;50.926;4.718;2022-07-17T02:45:30;6.70;;;3.72;;
11189;SDS011;5651;50.926;4.718;2022-07-17T02:47:56;7.10;;;3.65;;
11189;SDS011;5651;50.926;4.718;2022-07-17T02:50:22;6.35;;;3.95;;
11189;SDS011;5651;50.926;4.718;2022-07-17T02:52:48;7.82;;;3.97;;
11189;SDS011;5651;50.926;4.718;2022-07-17T02:55:17;5.90;;;3.50;;
11189;SDS011;5651;50.926;4.718;2022-07-17T02:57:44;17.27;;;4.53;;
11189;SDS011;5651;50.926;4.718;2022-07-17T03:00:14;7.80;;;3.60;;
11189;SDS011;5651;50.926;4.718;2022-07-17T03:02:44;8.18;;;4.50;;
11189;SDS011;5651;50.926;4.718;2022-07-17T03:05:11;8.77;;;3.70;;
11189;SDS011;5651;50.926;4.718;2022-07-17T03:07:37;6.43;;;3.60;;
11189;SDS011;5651;50.926;4.718;2022-07-17T03:10:03;5.32;;;3.40;;
11189;SDS011;5651;50.926;4.718;2022-07-17T03:12:30;8.02;;;3.63;;
11189;SDS011;5651;50.926;4.718;2022-07-17T03:14:55;9.80;;;4.45;;
11189;SDS011;5651;50.926;4.718;2022-07-17T03:17:21;6.43;;;3.63;;
11189;SDS011;5651;50.926;4.718;2022-07-17T03:19:47;6.05;;;3.35;;
11189;SDS011;5651;50.926;4.718;2022-07-17T03:22:13;5.70;;;3.95;;
11189;SDS011;5651;50.926;4.718;2022-07-17T03:24:39;6.43;;;4.00;;
11189;SDS011;5651;50.926;4.718;2022-07-17T03:27:04;6.10;;;3.75;;
11189;SDS011;5651;50.926;4.718;2022-07-17T03:29:30;6.55;;;3.60;;
11189;SDS011;5651;50.926;4.718;2022-07-17T03:31:56;6.68;;;3.65;;
11189;SDS011;5651;50.926;4.718;2022-07-17T03:34:22;8.43;;;4.15;;
11189;SDS011;5651;50.926;4.718;2022-07-17T03:36:47;6.57;;;4.05;;
11189;SDS011;5651;50.926;4.718;2022-07-17T03:39:13;5.55;;;3.78;;
11189;SDS011;5651;50.926;4.718;2022-07-17T03:41:39;5.63;;;3.60;;
11189;SDS011;5651;50.926;4.718;2022-07-17T03:44:06;6.80;;;3.80;;
11189;SDS011;5651;50.926;4.718;2022-07-17T03:46:32;6.90;;;4.07;;
11189;SDS011;5651;50.926;4.718;2022-07-17T03:48:57;7.13;;;3.97;;
11189;SDS011;5651;50.926;4.718;2022-07-17T03:51:23;7.65;;;3.92;;
11189;SDS011;5651;50.926;4.718;2022-07-17T03:53:49;6.60;;;4.32;;
11189;SDS011;5651;50.926;4.718;2022-07-17T03:56:15;8.30;;;4.55;;
11189;SDS011;5651;50.926;4.718;2022-07-17T03:58:41;5.22;;;3.95;;
11189;SDS011;5651;50.926;4.718;2022-07-17T04:01:06;6.47;;;4.05;;
11189;SDS011;5651;50.926;4.718;2022-07-17T04:03:32;8.10;;;4.10;;
11189;SDS011;5651;50.926;4.718;2022-07-17T04:05:58;9.65;;;4.20;;
11189;SDS011;5651;50.926;4.718;2022-07-17T04:08:24;8.15;;;4.93;;
11189;SDS011;5651;50.926;4.718;2022-07-17T04:10:49;8.57;;;4.50;;
11189;SDS011;5651;50.926;4.718;2022-07-17T04:13:15;7.50;;;4.65;;
11189;SDS011;5651;50.926;4.718;2022-07-17T04:15:41;8.55;;;4.88;;
11189;SDS011;5651;50.926;4.718;2022-07-17T04:18:22;7.32;;;4.30;;
11189;SDS011;5651;50.926;4.718;2022-07-17T04:20:56;8.38;;;4.47;;
11189;SDS011;5651;50.926;4.718;2022-07-17T04:23:23;10.23;;;4.85;;
11189;SDS011;5651;50.926;4.718;2022-07-17T04:25:50;6.55;;;4.38;;
11189;SDS011;5651;50.926;4.718;2022-07-17T04:28:16;9.52;;;4.30;;
11189;SDS011;5651;50.926;4.718;2022-07-17T04:30:42;8.32;;;4.53;;
11189;SDS011;5651;50.926;4.718;2022-07-17T04:33:08;7.45;;;4.40;;
11189;SDS011;5651;50.926;4.718;2022-07-17T04:35:34;8.52;;;4.85;;
11189;SDS011;5651;50.926;4.718;2022-07-17T04:38:01;7.95;;;4.10;;
11189;SDS011;5651;50.926;4.718;2022-07-17T04:40:27;9.75;;;5.25;;
11189;SDS011;5651;50.926;4.718;2022-07-17T04:42:53;8.68;;;4.35;;
11189;SDS011;5651;50.926;4.718;2022-07-17T04:45:19;8.38;;;4.50;;
11189;SDS011;5651;50.926;4.718;2022-07-17T04:47:45;8.82;;;4.13;;
11189;SDS011;5651;50.926;4.718;2022-07-17T04:50:10;6.45;;;4.40;;
11189;SDS011;5651;50.926;4.718;2022-07-17T04:52:36;8.65;;;4.70;;
11189;SDS011;5651;50.926;4.718;2022-07-17T04:55:02;7.25;;;4.28;;
11189;SDS011;5651;50.926;4.718;2022-07-17T04:57:29;9.65;;;4.57;;
11189;SDS011;5651;50.926;4.718;2022-07-17T04:59:54;10.15;;;4.70;;
11189;SDS011;5651;50.926;4.718;2022-07-17T05:02:20;9.02;;;5.13;;
11189;SDS011;5651;50.926;4.718;2022-07-17T05:04:46;8.80;;;5.32;;
11189;SDS011;5651;50.926;4.718;2022-07-17T05:07:12;8.90;;;5.15;;
11189;SDS011;5651;50.926;4.718;2022-07-17T05:09:38;6.65;;;4.63;;
11189;SDS011;5651;50.926;4.718;2022-07-17T05:12:04;9.95;;;4.93;;
11189;SDS011;5651;50.926;4.718;2022-07-17T05:14:31;9.18;;;5.28;;
11189;SDS011;5651;50.926;4.718;2022-07-17T05:16:56;8.02;;;4.78;;
11189;SDS011;5651;50.926;4.718;2022-07-17T05:19:22;10.32;;;4.82;;
11189;SDS011;5651;50.926;4.718;2022-07-17T05:21:49;9.55;;;4.80;;
11189;SDS011;5651;50.926;4.718;2022-07-17T05:24:15;9.40;;;4.90;;
11189;SDS011;5651;50.926;4.718;2022-07-17T05:26:41;7.18;;;4.70;;
11189;SDS011;5651;50.926;4.718;2022-07-17T05:29:07;9.38;;;5.32;;
11189;SDS011;5651;50.926;4.718;2022-07-17T05:31:33;7.85;;;5.05;;
11189;SDS011;5651;50.926;4.718;2022-07-17T05:33:59;7.60;;;4.25;;
11189;SDS011;5651;50.926;4.718;2022-07-17T05:36:25;6.15;;;4.20;;
11189;SDS011;5651;50.926;4.718;2022-07-17T05:38:51;8.57;;;4.40;;
11189;SDS011;5651;50.926;4.718;2022-07-17T05:41:17;10.43;;;4.90;;
11189;SDS011;5651;50.926;4.718;2022-07-17T05:43:42;11.43;;;6.15;;
11189;SDS011;5651;50.926;4.718;2022-07-17T05:46:08;16.92;;;8.20;;
11189;SDS011;5651;50.926;4.718;2022-07-17T05:48:34;12.50;;;6.35;;
11189;SDS011;5651;50.926;4.718;2022-07-17T05:51:00;11.00;;;5.35;;
11189;SDS011;5651;50.926;4.718;2022-07-17T05:53:26;10.07;;;5.43;;
11189;SDS011;5651;50.926;4.718;2022-07-17T05:55:52;9.77;;;5.10;;
11189;SDS011;5651;50.926;4.718;2022-07-17T05:58:18;10.20;;;4.82;;
11189;SDS011;5651;50.926;4.718;2022-07-17T06:00:44;10.98;;;4.25;;
11189;SDS011;5651;50.926;4.718;2022-07-17T06:03:10;10.63;;;4.72;;
11189;SDS011;5651;50.926;4.718;2022-07-17T06:05:36;10.38;;;4.50;;
11189;SDS011;5651;50.926;4.718;2022-07-17T06:08:02;10.63;;;4.28;;
11189;SDS011;5651;50.926;4.718;2022-07-17T06:10:28;12.25;;;4.68;;
11189;SDS011;5651;50.926;4.718;2022-07-17T06:12:54;9.93;;;4.20;;
11189;SDS011;5651;50.926;4.718;2022-07-17T06:15:22;7.55;;;4.68;;
11189;SDS011;5651;50.926;4.718;2022-07-17T06:17:48;10.90;;;4.30;;
11189;SDS011;5651;50.926;4.718;2022-07-17T06:20:15;12.90;;;5.00;;
11189;SDS011;5651;50.926;4.718;2022-07-17T06:22:41;6.82;;;3.78;;
11189;SDS011;5651;50.926;4.718;2022-07-17T06:25:09;11.18;;;4.50;;
11189;SDS011;5651;50.926;4.718;2022-07-17T06:27:35;5.70;;;3.90;;
11189;SDS011;5651;50.926;4.718;2022-07-17T06:30:03;8.23;;;3.47;;
11189;SDS011;5651;50.926;4.718;2022-07-17T06:32:29;9.45;;;3.67;;
11189;SDS011;5651;50.926;4.718;2022-07-17T06:34:55;7.15;;;3.97;;
11189;SDS011;5651;50.926;4.718;2022-07-17T06:37:22;8.27;;;3.47;;
11189;SDS011;5651;50.926;4.718;2022-07-17T06:39:48;10.65;;;4.10;;
11189;SDS011;5651;50.926;4.718;2022-07-17T06:42:14;8.65;;;3.28;;
11189;SDS011;5651;50.926;4.718;2022-07-17T06:44:40;8.73;;;3.65;;
11189;SDS011;5651;50.926;4.718;2022-07-17T06:47:05;13.18;;;4.80;;
11189;SDS011;5651;50.926;4.718;2022-07-17T06:49:31;7.93;;;3.47;;
11189;SDS011;5651;50.926;4.718;2022-07-17T06:51:57;7.60;;;3.30;;
11189;SDS011;5651;50.926;4.718;2022-07-17T06:54:23;7.40;;;3.10;;
11189;SDS011;5651;50.926;4.718;2022-07-17T06:56:51;9.85;;;3.42;;
11189;SDS011;5651;50.926;4.718;2022-07-17T06:59:18;8.45;;;3.45;;
11189;SDS011;5651;50.926;4.718;2022-07-17T07:01:44;9.63;;;3.05;;
11189;SDS011;5651;50.926;4.718;2022-07-17T07:04:10;9.93;;;3.50;;
11189;SDS011;5651;50.926;4.718;2022-07-17T07:06:35;6.53;;;2.92;;
11189;SDS011;5651;50.926;4.718;2022-07-17T07:09:01;6.60;;;2.83;;
11189;SDS011;5651;50.926;4.718;2022-07-17T07:11:27;7.90;;;3.40;;
11189;SDS011;5651;50.926;4.718;2022-07-17T07:13:53;6.25;;;3.20;;
11189;SDS011;5651;50.926;4.718;2022-07-17T07:16:19;8.85;;;2.80;;
11189;SDS011;5651;50.926;4.718;2022-07-17T07:18:45;10.60;;;3.90;;
11189;SDS011;5651;50.926;4.718;2022-07-17T07:21:11;8.32;;;2.97;;
11189;SDS011;5651;50.926;4.718;2022-07-17T07:23:37;8.13;;;3.38;;
11189;SDS011;5651;50.926;4.718;2022-07-17T07:26:03;6.53;;;2.90;;
11189;SDS011;5651;50.926;4.718;2022-07-17T07:28:29;8.27;;;2.83;;
11189;SDS011;5651;50.926;4.718;2022-07-17T07:30:55;6.95;;;3.00;;
11189;SDS011;5651;50.926;4.718;2022-07-17T07:33:21;11.52;;;3.25;;
11189;SDS011;5651;50.926;4.718;2022-07-17T07:35:48;6.38;;;2.58;;
11189;SDS011;5651;50.926;4.718;2022-07-17T07:38:13;7.05;;;2.60;;
11189;SDS011;5651;50.926;4.718;2022-07-17T07:40:39;16.10;;;2.95;;
11189;SDS011;5651;50.926;4.718;2022-07-17T07:43:05;6.60;;;2.90;;
11189;SDS011;5651;50.926;4.718;2022-07-17T07:45:31;5.85;;;2.50;;
11189;SDS011;5651;50.926;4.718;2022-07-17T07:47:56;6.57;;;2.75;;
11189;SDS011;5651;50.926;4.718;2022-07-17T07:50:23;8.07;;;2.35;;
11189;SDS011;5651;50.926;4.718;2022-07-17T07:52:52;6.40;;;2.60;;
11189;SDS011;5651;50.926;4.718;2022-07-17T07:55:17;8.68;;;2.45;;
11189;SDS011;5651;50.926;4.718;2022-07-17T07:57:44;8.70;;;2.85;;
11189;SDS011;5651;50.926;4.718;2022-07-17T08:00:10;5.68;;;2.20;;
11189;SDS011;5651;50.926;4.718;2022-07-17T08:02:37;9.68;;;2.58;;
11189;SDS011;5651;50.926;4.718;2022-07-17T08:05:03;9.02;;;2.58;;
11189;SDS011;5651;50.926;4.718;2022-07-17T08:07:29;6.45;;;2.30;;
11189;SDS011;5651;50.926;4.718;2022-07-17T08:09:56;5.38;;;2.47;;
11189;SDS011;5651;50.926;4.718;2022-07-17T08:12:23;6.82;;;2.85;;
11189;SDS011;5651;50.926;4.718;2022-07-17T08:14:50;11.13;;;2.95;;
11189;SDS011;5651;50.926;4.718;2022-07-17T08:17:16;10.65;;;2.85;;
11189;SDS011;5651;50.926;4.718;2022-07-17T08:19:43;8.60;;;2.53;;
11189;SDS011;5651;50.926;4.718;2022-07-17T08:22:08;10.38;;;2.85;;
11189;SDS011;5651;50.926;4.718;2022-07-17T08:24:34;7.10;;;2.28;;
11189;SDS011;5651;50.926;4.718;2022-07-17T08:27:00;5.53;;;2.10;;
11189;SDS011;5651;50.926;4.718;2022-07-17T08:29:26;9.18;;;2.38;;
11189;SDS011;5651;50.926;4.718;2022-07-17T08:31:51;5.53;;;1.88;;
11189;SDS011;5651;50.926;4.718;2022-07-17T08:34:18;6.43;;;1.80;;
11189;SDS011;5651;50.926;4.718;2022-07-17T08:36:44;10.48;;;2.53;;
11189;SDS011;5651;50.926;4.718;2022-07-17T08:39:10;6.30;;;1.90;;
11189;SDS011;5651;50.926;4.718;2022-07-17T08:41:36;5.75;;;2.03;;
11189;SDS011;5651;50.926;4.718;2022-07-17T08:44:04;7.85;;;1.75;;
11189;SDS011;5651;50.926;4.718;2022-07-17T08:46:30;10.07;;;1.98;;
11189;SDS011;5651;50.926;4.718;2022-07-17T08:48:58;5.82;;;1.88;;
11189;SDS011;5651;50.926;4.718;2022-07-17T08:51:25;5.38;;;2.25;;
11189;SDS011;5651;50.926;4.718;2022-07-17T08:53:52;5.95;;;1.70;;
11189;SDS011;5651;50.926;4.718;2022-07-17T08:56:19;8.63;;;2.42;;
11189;SDS011;5651;50.926;4.718;2022-07-17T08:58:45;7.63;;;2.20;;
11189;SDS011;5651;50.926;4.718;2022-07-17T09:01:11;8.18;;;2.55;;
11189;SDS011;5651;50.926;4.718;2022-07-17T09:03:38;10.32;;;3.20;;
11189;SDS011;5651;50.926;4.718;2022-07-17T09:06:04;7.80;;;2.05;;
11189;SDS011;5651;50.926;4.718;2022-07-17T09:08:30;8.35;;;1.77;;
11189;SDS011;5651;50.926;4.718;2022-07-17T09:10:59;4.07;;;1.30;;
11189;SDS011;5651;50.926;4.718;2022-07-17T09:13:28;5.70;;;2.20;;
11189;SDS011;5651;50.926;4.718;2022-07-17T09:15:57;6.10;;;2.47;;
11189;SDS011;5651;50.926;4.718;2022-07-17T09:18:31;4.95;;;2.33;;
11189;SDS011;5651;50.926;4.718;2022-07-17T09:20:57;4.55;;;2.00;;
11189;SDS011;5651;50.926;4.718;2022-07-17T09:23:24;5.72;;;1.95;;
11189;SDS011;5651;50.926;4.718;2022-07-17T09:25:53;9.57;;;2.00;;
11189;SDS011;5651;50.926;4.718;2022-07-17T09:28:21;8.68;;;2.30;;
11189;SDS011;5651;50.926;4.718;2022-07-17T09:30:49;4.68;;;1.55;;
11189;SDS011;5651;50.926;4.718;2022-07-17T09:33:22;5.32;;;1.92;;
11189;SDS011;5651;50.926;4.718;2022-07-17T09:35:55;5.40;;;2.13;;
11189;SDS011;5651;50.926;4.718;2022-07-17T09:38:29;9.65;;;2.45;;
11189;SDS011;5651;50.926;4.718;2022-07-17T09:41:07;5.93;;;1.95;;
11189;SDS011;5651;50.926;4.718;2022-07-17T09:43:50;5.60;;;1.80;;
11189;SDS011;5651;50.926;4.718;2022-07-17T09:46:34;11.68;;;2.15;;
11189;SDS011;5651;50.926;4.718;2022-07-17T09:49:05;6.70;;;1.55;;
11189;SDS011;5651;50.926;4.718;2022-07-17T09:51:36;6.45;;;2.05;;
11189;SDS011;5651;50.926;4.718;2022-07-17T09:54:04;8.05;;;2.15;;
11189;SDS011;5651;50.926;4.718;2022-07-17T09:56:32;7.25;;;1.67;;
11189;SDS011;5651;50.926;4.718;2022-07-17T09:59:04;5.20;;;1.70;;
11189;SDS011;5651;50.926;4.718;2022-07-17T10:01:31;8.03;;;2.30;;
11189;SDS011;5651;50.926;4.718;2022-07-17T10:03:58;7.65;;;2.17;;
11189;SDS011;5651;50.926;4.718;2022-07-17T10:06:25;9.07;;;2.55;;
11189;SDS011;5651;50.926;4.718;2022-07-17T10:08:52;7.53;;;2.72;;
11189;SDS011;5651;50.926;4.718;2022-07-17T10:11:20;11.85;;;1.95;;
11189;SDS011;5651;50.926;4.718;2022-07-17T10:13:47;6.47;;;2.00;;
11189;SDS011;5651;50.926;4.718;2022-07-17T10:16:23;8.43;;;2.08;;
11189;SDS011;5651;50.926;4.718;2022-07-17T10:18:53;6.28;;;2.08;;
11189;SDS011;5651;50.926;4.718;2022-07-17T10:21:21;8.73;;;1.67;;
11189;SDS011;5651;50.926;4.718;2022-07-17T10:24:09;6.35;;;2.13;;
11189;SDS011;5651;50.926;4.718;2022-07-17T10:26:38;11.63;;;2.60;;
11189;SDS011;5651;50.926;4.718;2022-07-17T10:29:24;7.75;;;1.80;;
11189;SDS011;5651;50.926;4.718;2022-07-17T10:31:53;9.35;;;1.60;;
11189;SDS011;5651;50.926;4.718;2022-07-17T10:35:06;6.10;;;2.20;;
11189;SDS011;5651;50.926;4.718;2022-07-17T10:37:15;6.47;;;2.10;;
11189;SDS011;5651;50.926;4.718;2022-07-17T10:39:51;4.07;;;1.67;;
11189;SDS011;5651;50.926;4.718;2022-07-17T10:42:43;8.23;;;2.28;;
11189;SDS011;5651;50.926;4.718;2022-07-17T10:45:10;8.10;;;2.10;;
11189;SDS011;5651;50.926;4.718;2022-07-17T10:47:44;4.88;;;2.22;;
11189;SDS011;5651;50.926;4.718;2022-07-17T10:50:55;5.45;;;1.98;;
11189;SDS011;5651;50.926;4.718;2022-07-17T10:53:23;8.80;;;2.10;;
11189;SDS011;5651;50.926;4.718;2022-07-17T10:55:59;7.38;;;2.67;;
11189;SDS011;5651;50.926;4.718;2022-07-17T10:58:31;8.45;;;2.97;;
11189;SDS011;5651;50.926;4.718;2022-07-17T11:00:58;3.85;;;1.50;;
11189;SDS011;5651;50.926;4.718;2022-07-17T11:03:26;5.35;;;1.85;;
11189;SDS011;5651;50.926;4.718;2022-07-17T11:05:53;5.75;;;2.10;;
11189;SDS011;5651;50.926;4.718;2022-07-17T11:08:19;5.25;;;2.08;;
11189;SDS011;5651;50.926;4.718;2022-07-17T11:10:45;3.80;;;1.67;;
11189;SDS011;5651;50.926;4.718;2022-07-17T11:13:13;5.28;;;1.88;;
11189;SDS011;5651;50.926;4.718;2022-07-17T11:15:45;4.50;;;2.10;;
11189;SDS011;5651;50.926;4.718;2022-07-17T11:18:21;4.60;;;2.42;;
11189;SDS011;5651;50.926;4.718;2022-07-17T11:20:48;7.57;;;2.22;;
11189;SDS011;5651;50.926;4.718;2022-07-17T11:23:18;3.30;;;1.90;;
11189;SDS011;5651;50.926;4.718;2022-07-17T11:30:57;7.25;;;2.35;;
11189;SDS011;5651;50.926;4.718;2022-07-17T11:33:23;4.50;;;2.03;;
11189;SDS011;5651;50.926;4.718;2022-07-17T11:35:49;5.03;;;2.40;;
11189;SDS011;5651;50.926;4.718;2022-07-17T11:38:15;3.33;;;1.98;;
11189;SDS011;5651;50.926;4.718;2022-07-17T11:40:59;4.70;;;2.15;;
11189;SDS011;5651;50.926;4.718;2022-07-17T11:43:24;5.30;;;2.30;;
11189;SDS011;5651;50.926;4.718;2022-07-17T11:45:50;4.22;;;1.85;;
11189;SDS011;5651;50.926;4.718;2022-07-17T11:48:16;8.05;;;2.42;;
11189;SDS011;5651;50.926;4.718;2022-07-17T11:50:52;3.92;;;1.75;;
11189;SDS011;5651;50.926;4.718;2022-07-17T11:53:29;4.60;;;2.30;;
11189;SDS011;5651;50.926;4.718;2022-07-17T11:55:56;10.20;;;2.20;;
11189;SDS011;5651;50.926;4.718;2022-07-17T11:58:22;4.05;;;1.88;;
11189;SDS011;5651;50.926;4.718;2022-07-17T12:00:48;4.28;;;2.00;;
11189;SDS011;5651;50.926;4.718;2022-07-17T12:03:13;4.95;;;2.10;;
11189;SDS011;5651;50.926;4.718;2022-07-17T12:05:39;8.30;;;3.05;;
11189;SDS011;5651;50.926;4.718;2022-07-17T12:08:07;4.15;;;1.73;;
11189;SDS011;5651;50.926;4.718;2022-07-17T12:10:34;5.53;;;2.22;;
11189;SDS011;5651;50.926;4.718;2022-07-17T12:13:01;3.45;;;1.83;;
11189;SDS011;5651;50.926;4.718;2022-07-17T12:18:19;3.53;;;1.75;;
11189;SDS011;5651;50.926;4.718;2022-07-17T12:20:52;6.10;;;2.53;;
11189;SDS011;5651;50.926;4.718;2022-07-17T12:25:51;3.47;;;1.80;;
11189;SDS011;5651;50.926;4.718;2022-07-17T12:28:31;4.03;;;1.73;;
11189;SDS011;5651;50.926;4.718;2022-07-17T12:30:57;4.50;;;2.10;;
11189;SDS011;5651;50.926;4.718;2022-07-17T12:33:23;3.25;;;1.50;;
11189;SDS011;5651;50.926;4.718;2022-07-17T12:35:48;3.50;;;1.65;;
11189;SDS011;5651;50.926;4.718;2022-07-17T12:38:14;5.75;;;1.85;;
11189;SDS011;5651;50.926;4.718;2022-07-17T12:40:40;4.50;;;1.98;;
11189;SDS011;5651;50.926;4.718;2022-07-17T12:43:06;2.10;;;1.60;;
11189;SDS011;5651;50.926;4.718;2022-07-17T12:45:32;2.67;;;1.70;;
11189;SDS011;5651;50.926;4.718;2022-07-17T12:47:58;2.47;;;1.48;;
11189;SDS011;5651;50.926;4.718;2022-07-17T12:50:23;5.95;;;2.10;;
11189;SDS011;5651;50.926;4.718;2022-07-17T12:52:49;6.63;;;1.90;;
11189;SDS011;5651;50.926;4.718;2022-07-17T12:55:15;2.88;;;1.75;;
11189;SDS011;5651;50.926;4.718;2022-07-17T12:57:40;5.15;;;1.88;;
11189;SDS011;5651;50.926;4.718;2022-07-17T13:00:06;4.32;;;1.77;;
11189;SDS011;5651;50.926;4.718;2022-07-17T13:02:32;3.25;;;1.60;;
11189;SDS011;5651;50.926;4.718;2022-07-17T13:04:58;1.88;;;1.42;;
11189;SDS011;5651;50.926;4.718;2022-07-17T13:07:24;4.95;;;2.33;;
11189;SDS011;5651;50.926;4.718;2022-07-17T13:09:50;3.15;;;2.08;;
11189;SDS011;5651;50.926;4.718;2022-07-17T13:12:15;3.80;;;2.00;;
11189;SDS011;5651;50.926;4.718;2022-07-17T13:14:41;1.83;;;1.50;;
11189;SDS011;5651;50.926;4.718;2022-07-17T13:17:07;3.67;;;1.95;;
11189;SDS011;5651;50.926;4.718;2022-07-17T13:19:32;2.95;;;1.90;;
11189;SDS011;5651;50.926;4.718;2022-07-17T13:22:00;3.22;;;1.80;;
11189;SDS011;5651;50.926;4.718;2022-07-17T13:24:26;2.25;;;1.70;;
11189;SDS011;5651;50.926;4.718;2022-07-17T13:26:51;1.77;;;1.60;;
11189;SDS011;5651;50.926;4.718;2022-07-17T13:29:17;3.00;;;1.70;;
11189;SDS011;5651;50.926;4.718;2022-07-17T13:31:43;3.53;;;2.05;;
11189;SDS011;5651;50.926;4.718;2022-07-17T13:34:09;4.38;;;2.00;;
11189;SDS011;5651;50.926;4.718;2022-07-17T13:36:34;2.28;;;1.60;;
11189;SDS011;5651;50.926;4.718;2022-07-17T13:39:00;4.78;;;1.92;;
11189;SDS011;5651;50.926;4.718;2022-07-17T13:41:26;3.15;;;1.40;;
11189;SDS011;5651;50.926;4.718;2022-07-17T13:43:52;1.55;;;1.20;;
11189;SDS011;5651;50.926;4.718;2022-07-17T13:46:17;3.15;;;1.70;;
11189;SDS011;5651;50.926;4.718;2022-07-17T13:48:43;3.28;;;1.30;;
11189;SDS011;5651;50.926;4.718;2022-07-17T13:51:09;3.15;;;1.65;;
11189;SDS011;5651;50.926;4.718;2022-07-17T13:53:36;4.82;;;1.85;;
11189;SDS011;5651;50.926;4.718;2022-07-17T13:56:02;2.78;;;1.65;;
11189;SDS011;5651;50.926;4.718;2022-07-17T13:58:28;3.75;;;1.80;;
11189;SDS011;5651;50.926;4.718;2022-07-17T14:00:54;3.25;;;1.50;;
11189;SDS011;5651;50.926;4.718;2022-07-17T14:03:20;4.18;;;2.08;;
11189;SDS011;5651;50.926;4.718;2022-07-17T14:05:48;4.00;;;1.90;;
11189;SDS011;5651;50.926;4.718;2022-07-17T14:08:13;2.90;;;1.33;;
11189;SDS011;5651;50.926;4.718;2022-07-17T14:10:39;3.45;;;1.65;;
11189;SDS011;5651;50.926;4.718;2022-07-17T14:13:05;4.15;;;1.73;;
11189;SDS011;5651;50.926;4.718;2022-07-17T14:15:30;2.65;;;1.80;;
11189;SDS011;5651;50.926;4.718;2022-07-17T14:17:56;2.35;;;1.33;;
11189;SDS011;5651;50.926;4.718;2022-07-17T14:20:22;2.78;;;1.40;;
11189;SDS011;5651;50.926;4.718;2022-07-17T14:22:48;3.13;;;1.58;;
11189;SDS011;5651;50.926;4.718;2022-07-17T14:25:14;1.83;;;1.45;;
11189;SDS011;5651;50.926;4.718;2022-07-17T14:27:40;2.28;;;1.50;;
11189;SDS011;5651;50.926;4.718;2022-07-17T14:30:05;4.13;;;1.85;;
11189;SDS011;5651;50.926;4.718;2022-07-17T14:32:32;3.53;;;1.52;;
11189;SDS011;5651;50.926;4.718;2022-07-17T14:34:58;2.95;;;1.63;;
11189;SDS011;5651;50.926;4.718;2022-07-17T14:37:23;2.67;;;1.42;;
11189;SDS011;5651;50.926;4.718;2022-07-17T14:39:49;2.95;;;1.60;;
11189;SDS011;5651;50.926;4.718;2022-07-17T14:42:15;3.97;;;1.40;;
11189;SDS011;5651;50.926;4.718;2022-07-17T14:44:41;2.42;;;1.25;;
11189;SDS011;5651;50.926;4.718;2022-07-17T14:47:07;4.18;;;1.45;;
11189;SDS011;5651;50.926;4.718;2022-07-17T14:49:32;2.85;;;1.40;;
11189;SDS011;5651;50.926;4.718;2022-07-17T14:51:58;1.92;;;1.55;;
11189;SDS011;5651;50.926;4.718;2022-07-17T14:54:24;1.52;;;1.02;;
11189;SDS011;5651;50.926;4.718;2022-07-17T14:56:50;2.05;;;1.30;;
11189;SDS011;5651;50.926;4.718;2022-07-17T14:59:16;2.05;;;1.35;;
11189;SDS011;5651;50.926;4.718;2022-07-17T15:01:42;2.78;;;1.40;;
11189;SDS011;5651;50.926;4.718;2022-07-17T15:04:07;2.17;;;1.48;;
11189;SDS011;5651;50.926;4.718;2022-07-17T15:06:33;3.25;;;1.60;;
11189;SDS011;5651;50.926;4.718;2022-07-17T15:08:59;3.40;;;1.45;;
11189;SDS011;5651;50.926;4.718;2022-07-17T15:11:24;2.22;;;1.40;;